<?xml version="1.0" encoding="UTF-8"?>
<gpx version="1.1" creator="GPSBabel - http://www.gpsbabel.org" xmlns="http://www.topografix.com/GPX/1/1" xmlns:xsi="http://www.w3.org/2001/XMLSchema-instance">
  <metadata>
    <time>2025-10-10T11:19:35.696Z</time>
    <bounds minlat="43.595200000" minlon="5.021070000" maxlat="43.620520000" maxlon="5.068370000"/>
  </metadata>
  <trk>
    <name>randogps13-683</name>
    <trkseg>
      <trkpt lat="43.608580000" lon="5.061490000">
        <ele>56.000000</ele>
        <time>2021-03-31T15:18:34Z</time>
      </trkpt>
      <trkpt lat="43.607990000" lon="5.062060000">
        <ele>56.000000</ele>
        <time>2021-03-31T15:20:10Z</time>
      </trkpt>
      <trkpt lat="43.607820000" lon="5.062090000">
        <ele>55.000000</ele>
        <time>2021-03-31T15:20:33Z</time>
      </trkpt>
      <trkpt lat="43.607490000" lon="5.062470000">
        <ele>55.000000</ele>
        <time>2021-03-31T15:21:30Z</time>
      </trkpt>
      <trkpt lat="43.607290000" lon="5.062630000">
        <ele>56.000000</ele>
        <time>2021-03-31T15:22:01Z</time>
      </trkpt>
      <trkpt lat="43.607250000" lon="5.062510000">
        <ele>56.000000</ele>
        <time>2021-03-31T15:22:14Z</time>
      </trkpt>
      <trkpt lat="43.607260000" lon="5.062160000">
        <ele>56.000000</ele>
        <time>2021-03-31T15:22:48Z</time>
      </trkpt>
      <trkpt lat="43.607560000" lon="5.061810000">
        <ele>55.000000</ele>
        <time>2021-03-31T15:23:40Z</time>
      </trkpt>
      <trkpt lat="43.608010000" lon="5.061380000">
        <ele>56.000000</ele>
        <time>2021-03-31T15:24:53Z</time>
      </trkpt>
      <trkpt lat="43.608400000" lon="5.061150000">
        <ele>56.000000</ele>
        <time>2021-03-31T15:25:50Z</time>
      </trkpt>
      <trkpt lat="43.608800000" lon="5.060820000">
        <ele>55.000000</ele>
        <time>2021-03-31T15:26:52Z</time>
      </trkpt>
      <trkpt lat="43.609130000" lon="5.060470000">
        <ele>55.000000</ele>
        <time>2021-03-31T15:27:47Z</time>
      </trkpt>
      <trkpt lat="43.609290000" lon="5.060340000">
        <ele>55.000000</ele>
        <time>2021-03-31T15:28:12Z</time>
      </trkpt>
      <trkpt lat="43.609320000" lon="5.060270000">
        <ele>55.000000</ele>
        <time>2021-03-31T15:28:20Z</time>
      </trkpt>
      <trkpt lat="43.609290000" lon="5.060110000">
        <ele>55.000000</ele>
        <time>2021-03-31T15:28:36Z</time>
      </trkpt>
      <trkpt lat="43.609080000" lon="5.059540000">
        <ele>55.000000</ele>
        <time>2021-03-31T15:29:38Z</time>
      </trkpt>
      <trkpt lat="43.609050000" lon="5.059290000">
        <ele>55.000000</ele>
        <time>2021-03-31T15:30:02Z</time>
      </trkpt>
      <trkpt lat="43.608830000" lon="5.058200000">
        <ele>59.000000</ele>
        <time>2021-03-31T15:31:52Z</time>
      </trkpt>
      <trkpt lat="43.608830000" lon="5.057940000">
        <ele>60.000000</ele>
        <time>2021-03-31T15:32:17Z</time>
      </trkpt>
      <trkpt lat="43.608800000" lon="5.057750000">
        <ele>61.000000</ele>
        <time>2021-03-31T15:32:36Z</time>
      </trkpt>
      <trkpt lat="43.608820000" lon="5.057650000">
        <ele>62.000000</ele>
        <time>2021-03-31T15:32:46Z</time>
      </trkpt>
      <trkpt lat="43.608910000" lon="5.057400000">
        <ele>62.000000</ele>
        <time>2021-03-31T15:33:13Z</time>
      </trkpt>
      <trkpt lat="43.609070000" lon="5.057130000">
        <ele>62.000000</ele>
        <time>2021-03-31T15:33:46Z</time>
      </trkpt>
      <trkpt lat="43.609530000" lon="5.056680000">
        <ele>62.000000</ele>
        <time>2021-03-31T15:35:02Z</time>
      </trkpt>
      <trkpt lat="43.610150000" lon="5.056140000">
        <ele>62.000000</ele>
        <time>2021-03-31T15:36:39Z</time>
      </trkpt>
      <trkpt lat="43.610680000" lon="5.055770000">
        <ele>58.000000</ele>
        <time>2021-03-31T15:37:59Z</time>
      </trkpt>
      <trkpt lat="43.610830000" lon="5.055650000">
        <ele>57.000000</ele>
        <time>2021-03-31T15:38:22Z</time>
      </trkpt>
      <trkpt lat="43.610860000" lon="5.055590000">
        <ele>56.000000</ele>
        <time>2021-03-31T15:38:29Z</time>
      </trkpt>
      <trkpt lat="43.610950000" lon="5.055400000">
        <ele>56.000000</ele>
        <time>2021-03-31T15:38:51Z</time>
      </trkpt>
      <trkpt lat="43.611130000" lon="5.054430000">
        <ele>55.000000</ele>
        <time>2021-03-31T15:40:27Z</time>
      </trkpt>
      <trkpt lat="43.611230000" lon="5.054160000">
        <ele>55.000000</ele>
        <time>2021-03-31T15:40:57Z</time>
      </trkpt>
      <trkpt lat="43.611180000" lon="5.053870000">
        <ele>54.000000</ele>
        <time>2021-03-31T15:41:26Z</time>
      </trkpt>
      <trkpt lat="43.611180000" lon="5.053630000">
        <ele>54.000000</ele>
        <time>2021-03-31T15:41:49Z</time>
      </trkpt>
      <trkpt lat="43.611380000" lon="5.052780000">
        <ele>52.000000</ele>
        <time>2021-03-31T15:43:15Z</time>
      </trkpt>
      <trkpt lat="43.611450000" lon="5.052200000">
        <ele>51.000000</ele>
        <time>2021-03-31T15:44:12Z</time>
      </trkpt>
      <trkpt lat="43.611840000" lon="5.051570000">
        <ele>51.000000</ele>
        <time>2021-03-31T15:45:32Z</time>
      </trkpt>
      <trkpt lat="43.611850000" lon="5.051540000">
        <ele>51.000000</ele>
        <time>2021-03-31T15:45:35Z</time>
      </trkpt>
      <trkpt lat="43.611820000" lon="5.051540000">
        <ele>51.000000</ele>
        <time>2021-03-31T15:45:39Z</time>
      </trkpt>
      <trkpt lat="43.612060000" lon="5.051060000">
        <ele>53.000000</ele>
        <time>2021-03-31T15:46:36Z</time>
      </trkpt>
      <trkpt lat="43.612320000" lon="5.050850000">
        <ele>52.000000</ele>
        <time>2021-03-31T15:47:16Z</time>
      </trkpt>
      <trkpt lat="43.612420000" lon="5.050990000">
        <ele>52.000000</ele>
        <time>2021-03-31T15:47:35Z</time>
      </trkpt>
      <trkpt lat="43.612600000" lon="5.051170000">
        <ele>52.000000</ele>
        <time>2021-03-31T15:48:04Z</time>
      </trkpt>
      <trkpt lat="43.612840000" lon="5.051180000">
        <ele>53.000000</ele>
        <time>2021-03-31T15:48:36Z</time>
      </trkpt>
      <trkpt lat="43.613030000" lon="5.050980000">
        <ele>53.000000</ele>
        <time>2021-03-31T15:49:08Z</time>
      </trkpt>
      <trkpt lat="43.613240000" lon="5.050670000">
        <ele>54.000000</ele>
        <time>2021-03-31T15:49:49Z</time>
      </trkpt>
      <trkpt lat="43.613200000" lon="5.050570000">
        <ele>54.000000</ele>
        <time>2021-03-31T15:50:00Z</time>
      </trkpt>
      <trkpt lat="43.613230000" lon="5.050540000">
        <ele>54.000000</ele>
        <time>2021-03-31T15:50:05Z</time>
      </trkpt>
      <trkpt lat="43.613530000" lon="5.050500000">
        <ele>55.000000</ele>
        <time>2021-03-31T15:50:46Z</time>
      </trkpt>
      <trkpt lat="43.613920000" lon="5.050630000">
        <ele>55.000000</ele>
        <time>2021-03-31T15:51:39Z</time>
      </trkpt>
      <trkpt lat="43.614040000" lon="5.050640000">
        <ele>56.000000</ele>
        <time>2021-03-31T15:51:55Z</time>
      </trkpt>
      <trkpt lat="43.614210000" lon="5.050580000">
        <ele>56.000000</ele>
        <time>2021-03-31T15:52:19Z</time>
      </trkpt>
      <trkpt lat="43.614400000" lon="5.050430000">
        <ele>56.000000</ele>
        <time>2021-03-31T15:52:48Z</time>
      </trkpt>
      <trkpt lat="43.614870000" lon="5.050430000">
        <ele>56.000000</ele>
        <time>2021-03-31T15:53:50Z</time>
      </trkpt>
      <trkpt lat="43.615040000" lon="5.050380000">
        <ele>56.000000</ele>
        <time>2021-03-31T15:54:14Z</time>
      </trkpt>
      <trkpt lat="43.615060000" lon="5.050240000">
        <ele>56.000000</ele>
        <time>2021-03-31T15:54:27Z</time>
      </trkpt>
      <trkpt lat="43.615010000" lon="5.050100000">
        <ele>55.000000</ele>
        <time>2021-03-31T15:54:43Z</time>
      </trkpt>
      <trkpt lat="43.615200000" lon="5.049710000">
        <ele>57.000000</ele>
        <time>2021-03-31T15:55:28Z</time>
      </trkpt>
      <trkpt lat="43.615330000" lon="5.049510000">
        <ele>57.000000</ele>
        <time>2021-03-31T15:55:54Z</time>
      </trkpt>
      <trkpt lat="43.615490000" lon="5.049150000">
        <ele>57.000000</ele>
        <time>2021-03-31T15:56:35Z</time>
      </trkpt>
      <trkpt lat="43.615630000" lon="5.049000000">
        <ele>57.000000</ele>
        <time>2021-03-31T15:56:58Z</time>
      </trkpt>
      <trkpt lat="43.615820000" lon="5.048870000">
        <ele>56.000000</ele>
        <time>2021-03-31T15:57:27Z</time>
      </trkpt>
      <trkpt lat="43.615900000" lon="5.048590000">
        <ele>57.000000</ele>
        <time>2021-03-31T15:57:56Z</time>
      </trkpt>
      <trkpt lat="43.616050000" lon="5.048410000">
        <ele>58.000000</ele>
        <time>2021-03-31T15:58:22Z</time>
      </trkpt>
      <trkpt lat="43.616260000" lon="5.048300000">
        <ele>58.000000</ele>
        <time>2021-03-31T15:58:52Z</time>
      </trkpt>
      <trkpt lat="43.616670000" lon="5.048170000">
        <ele>56.000000</ele>
        <time>2021-03-31T15:59:48Z</time>
      </trkpt>
      <trkpt lat="43.616850000" lon="5.048000000">
        <ele>56.000000</ele>
        <time>2021-03-31T16:00:17Z</time>
      </trkpt>
      <trkpt lat="43.617030000" lon="5.047770000">
        <ele>56.000000</ele>
        <time>2021-03-31T16:00:50Z</time>
      </trkpt>
      <trkpt lat="43.617050000" lon="5.047710000">
        <ele>56.000000</ele>
        <time>2021-03-31T16:00:57Z</time>
      </trkpt>
      <trkpt lat="43.617030000" lon="5.047190000">
        <ele>56.000000</ele>
        <time>2021-03-31T16:01:47Z</time>
      </trkpt>
      <trkpt lat="43.617100000" lon="5.046890000">
        <ele>56.000000</ele>
        <time>2021-03-31T16:02:17Z</time>
      </trkpt>
      <trkpt lat="43.617200000" lon="5.046880000">
        <ele>55.000000</ele>
        <time>2021-03-31T16:02:31Z</time>
      </trkpt>
      <trkpt lat="43.617360000" lon="5.047070000">
        <ele>53.000000</ele>
        <time>2021-03-31T16:02:59Z</time>
      </trkpt>
      <trkpt lat="43.617360000" lon="5.047250000">
        <ele>53.000000</ele>
        <time>2021-03-31T16:03:16Z</time>
      </trkpt>
      <trkpt lat="43.617360000" lon="5.047230000">
        <ele>53.000000</ele>
        <time>2021-03-31T16:03:18Z</time>
      </trkpt>
      <trkpt lat="43.617480000" lon="5.047160000">
        <ele>52.000000</ele>
        <time>2021-03-31T16:03:36Z</time>
      </trkpt>
      <trkpt lat="43.617540000" lon="5.047190000">
        <ele>52.000000</ele>
        <time>2021-03-31T16:03:44Z</time>
      </trkpt>
      <trkpt lat="43.617640000" lon="5.047160000">
        <ele>53.000000</ele>
        <time>2021-03-31T16:03:58Z</time>
      </trkpt>
      <trkpt lat="43.617600000" lon="5.047140000">
        <ele>53.000000</ele>
        <time>2021-03-31T16:04:03Z</time>
      </trkpt>
      <trkpt lat="43.617570000" lon="5.047170000">
        <ele>52.000000</ele>
        <time>2021-03-31T16:04:08Z</time>
      </trkpt>
      <trkpt lat="43.617770000" lon="5.047150000">
        <ele>54.000000</ele>
        <time>2021-03-31T16:04:35Z</time>
      </trkpt>
      <trkpt lat="43.617960000" lon="5.047500000">
        <ele>55.000000</ele>
        <time>2021-03-31T16:05:17Z</time>
      </trkpt>
      <trkpt lat="43.618270000" lon="5.047810000">
        <ele>58.000000</ele>
        <time>2021-03-31T16:06:08Z</time>
      </trkpt>
      <trkpt lat="43.618430000" lon="5.047890000">
        <ele>59.000000</ele>
        <time>2021-03-31T16:06:31Z</time>
      </trkpt>
      <trkpt lat="43.618820000" lon="5.048160000">
        <ele>60.000000</ele>
        <time>2021-03-31T16:07:29Z</time>
      </trkpt>
      <trkpt lat="43.619300000" lon="5.048330000">
        <ele>59.000000</ele>
        <time>2021-03-31T16:08:36Z</time>
      </trkpt>
      <trkpt lat="43.619500000" lon="5.048540000">
        <ele>59.000000</ele>
        <time>2021-03-31T16:09:09Z</time>
      </trkpt>
      <trkpt lat="43.619590000" lon="5.048720000">
        <ele>59.000000</ele>
        <time>2021-03-31T16:09:30Z</time>
      </trkpt>
      <trkpt lat="43.619760000" lon="5.048820000">
        <ele>59.000000</ele>
        <time>2021-03-31T16:09:55Z</time>
      </trkpt>
      <trkpt lat="43.620150000" lon="5.048910000">
        <ele>59.000000</ele>
        <time>2021-03-31T16:10:48Z</time>
      </trkpt>
      <trkpt lat="43.620260000" lon="5.049010000">
        <ele>60.000000</ele>
        <time>2021-03-31T16:11:05Z</time>
      </trkpt>
      <trkpt lat="43.620290000" lon="5.049120000">
        <ele>59.000000</ele>
        <time>2021-03-31T16:11:17Z</time>
      </trkpt>
      <trkpt lat="43.620270000" lon="5.049190000">
        <ele>59.000000</ele>
        <time>2021-03-31T16:11:24Z</time>
      </trkpt>
      <trkpt lat="43.620400000" lon="5.049150000">
        <ele>60.000000</ele>
        <time>2021-03-31T16:11:42Z</time>
      </trkpt>
      <trkpt lat="43.620380000" lon="5.049090000">
        <ele>60.000000</ele>
        <time>2021-03-31T16:11:48Z</time>
      </trkpt>
      <trkpt lat="43.620390000" lon="5.049020000">
        <ele>60.000000</ele>
        <time>2021-03-31T16:11:55Z</time>
      </trkpt>
      <trkpt lat="43.620470000" lon="5.048980000">
        <ele>61.000000</ele>
        <time>2021-03-31T16:12:06Z</time>
      </trkpt>
      <trkpt lat="43.620390000" lon="5.049040000">
        <ele>60.000000</ele>
        <time>2021-03-31T16:12:18Z</time>
      </trkpt>
      <trkpt lat="43.620450000" lon="5.048970000">
        <ele>61.000000</ele>
        <time>2021-03-31T16:12:29Z</time>
      </trkpt>
      <trkpt lat="43.620520000" lon="5.048950000">
        <ele>61.000000</ele>
        <time>2021-03-31T16:12:38Z</time>
      </trkpt>
      <trkpt lat="43.620450000" lon="5.048950000">
        <ele>61.000000</ele>
        <time>2021-03-31T16:12:48Z</time>
      </trkpt>
      <trkpt lat="43.620340000" lon="5.049060000">
        <ele>60.000000</ele>
        <time>2021-03-31T16:13:06Z</time>
      </trkpt>
      <trkpt lat="43.620230000" lon="5.049370000">
        <ele>59.000000</ele>
        <time>2021-03-31T16:13:39Z</time>
      </trkpt>
      <trkpt lat="43.620190000" lon="5.049570000">
        <ele>59.000000</ele>
        <time>2021-03-31T16:13:59Z</time>
      </trkpt>
      <trkpt lat="43.620250000" lon="5.049580000">
        <ele>60.000000</ele>
        <time>2021-03-31T16:14:07Z</time>
      </trkpt>
      <trkpt lat="43.620200000" lon="5.049530000">
        <ele>59.000000</ele>
        <time>2021-03-31T16:14:16Z</time>
      </trkpt>
      <trkpt lat="43.620120000" lon="5.049560000">
        <ele>59.000000</ele>
        <time>2021-03-31T16:14:27Z</time>
      </trkpt>
      <trkpt lat="43.620050000" lon="5.049620000">
        <ele>58.000000</ele>
        <time>2021-03-31T16:14:38Z</time>
      </trkpt>
      <trkpt lat="43.619720000" lon="5.049580000">
        <ele>59.000000</ele>
        <time>2021-03-31T16:15:22Z</time>
      </trkpt>
      <trkpt lat="43.619560000" lon="5.049590000">
        <ele>59.000000</ele>
        <time>2021-03-31T16:15:43Z</time>
      </trkpt>
      <trkpt lat="43.619510000" lon="5.049490000">
        <ele>59.000000</ele>
        <time>2021-03-31T16:15:55Z</time>
      </trkpt>
      <trkpt lat="43.619550000" lon="5.048930000">
        <ele>59.000000</ele>
        <time>2021-03-31T16:16:49Z</time>
      </trkpt>
      <trkpt lat="43.619590000" lon="5.048740000">
        <ele>59.000000</ele>
        <time>2021-03-31T16:17:08Z</time>
      </trkpt>
      <trkpt lat="43.619520000" lon="5.048650000">
        <ele>59.000000</ele>
        <time>2021-03-31T16:17:21Z</time>
      </trkpt>
      <trkpt lat="43.619410000" lon="5.048790000">
        <ele>59.000000</ele>
        <time>2021-03-31T16:17:41Z</time>
      </trkpt>
      <trkpt lat="43.619390000" lon="5.049280000">
        <ele>59.000000</ele>
        <time>2021-03-31T16:18:29Z</time>
      </trkpt>
      <trkpt lat="43.619280000" lon="5.049740000">
        <ele>61.000000</ele>
        <time>2021-03-31T16:19:15Z</time>
      </trkpt>
      <trkpt lat="43.619130000" lon="5.050050000">
        <ele>62.000000</ele>
        <time>2021-03-31T16:19:51Z</time>
      </trkpt>
      <trkpt lat="43.619050000" lon="5.050060000">
        <ele>63.000000</ele>
        <time>2021-03-31T16:20:02Z</time>
      </trkpt>
      <trkpt lat="43.619110000" lon="5.049770000">
        <ele>62.000000</ele>
        <time>2021-03-31T16:20:31Z</time>
      </trkpt>
      <trkpt lat="43.619080000" lon="5.049650000">
        <ele>61.000000</ele>
        <time>2021-03-31T16:20:43Z</time>
      </trkpt>
      <trkpt lat="43.618990000" lon="5.049610000">
        <ele>62.000000</ele>
        <time>2021-03-31T16:20:56Z</time>
      </trkpt>
      <trkpt lat="43.618900000" lon="5.049310000">
        <ele>61.000000</ele>
        <time>2021-03-31T16:21:27Z</time>
      </trkpt>
      <trkpt lat="43.619040000" lon="5.049140000">
        <ele>60.000000</ele>
        <time>2021-03-31T16:21:52Z</time>
      </trkpt>
      <trkpt lat="43.619230000" lon="5.048650000">
        <ele>59.000000</ele>
        <time>2021-03-31T16:22:46Z</time>
      </trkpt>
      <trkpt lat="43.619230000" lon="5.048500000">
        <ele>59.000000</ele>
        <time>2021-03-31T16:23:01Z</time>
      </trkpt>
      <trkpt lat="43.619010000" lon="5.048500000">
        <ele>59.000000</ele>
        <time>2021-03-31T16:23:30Z</time>
      </trkpt>
      <trkpt lat="43.618790000" lon="5.048550000">
        <ele>60.000000</ele>
        <time>2021-03-31T16:24:00Z</time>
      </trkpt>
      <trkpt lat="43.618570000" lon="5.048330000">
        <ele>60.000000</ele>
        <time>2021-03-31T16:24:36Z</time>
      </trkpt>
      <trkpt lat="43.618420000" lon="5.048250000">
        <ele>60.000000</ele>
        <time>2021-03-31T16:24:57Z</time>
      </trkpt>
      <trkpt lat="43.618280000" lon="5.048070000">
        <ele>59.000000</ele>
        <time>2021-03-31T16:25:23Z</time>
      </trkpt>
      <trkpt lat="43.618180000" lon="5.048070000">
        <ele>58.000000</ele>
        <time>2021-03-31T16:25:36Z</time>
      </trkpt>
      <trkpt lat="43.618090000" lon="5.048220000">
        <ele>59.000000</ele>
        <time>2021-03-31T16:25:55Z</time>
      </trkpt>
      <trkpt lat="43.617920000" lon="5.048850000">
        <ele>61.000000</ele>
        <time>2021-03-31T16:27:00Z</time>
      </trkpt>
      <trkpt lat="43.617860000" lon="5.048940000">
        <ele>62.000000</ele>
        <time>2021-03-31T16:27:12Z</time>
      </trkpt>
      <trkpt lat="43.617660000" lon="5.048980000">
        <ele>61.000000</ele>
        <time>2021-03-31T16:27:39Z</time>
      </trkpt>
      <trkpt lat="43.617530000" lon="5.049120000">
        <ele>62.000000</ele>
        <time>2021-03-31T16:28:01Z</time>
      </trkpt>
      <trkpt lat="43.617550000" lon="5.048980000">
        <ele>61.000000</ele>
        <time>2021-03-31T16:28:15Z</time>
      </trkpt>
      <trkpt lat="43.617670000" lon="5.048830000">
        <ele>60.000000</ele>
        <time>2021-03-31T16:28:36Z</time>
      </trkpt>
      <trkpt lat="43.617850000" lon="5.048180000">
        <ele>57.000000</ele>
        <time>2021-03-31T16:29:43Z</time>
      </trkpt>
      <trkpt lat="43.617800000" lon="5.048080000">
        <ele>57.000000</ele>
        <time>2021-03-31T16:29:55Z</time>
      </trkpt>
      <trkpt lat="43.617650000" lon="5.048150000">
        <ele>57.000000</ele>
        <time>2021-03-31T16:30:16Z</time>
      </trkpt>
      <trkpt lat="43.617520000" lon="5.048290000">
        <ele>57.000000</ele>
        <time>2021-03-31T16:30:38Z</time>
      </trkpt>
      <trkpt lat="43.617420000" lon="5.048230000">
        <ele>56.000000</ele>
        <time>2021-03-31T16:30:53Z</time>
      </trkpt>
      <trkpt lat="43.617220000" lon="5.047870000">
        <ele>55.000000</ele>
        <time>2021-03-31T16:31:37Z</time>
      </trkpt>
      <trkpt lat="43.617210000" lon="5.047260000">
        <ele>54.000000</ele>
        <time>2021-03-31T16:32:36Z</time>
      </trkpt>
      <trkpt lat="43.617300000" lon="5.047100000">
        <ele>54.000000</ele>
        <time>2021-03-31T16:32:55Z</time>
      </trkpt>
      <trkpt lat="43.617210000" lon="5.046920000">
        <ele>55.000000</ele>
        <time>2021-03-31T16:33:16Z</time>
      </trkpt>
      <trkpt lat="43.617180000" lon="5.046740000">
        <ele>55.000000</ele>
        <time>2021-03-31T16:33:34Z</time>
      </trkpt>
      <trkpt lat="43.617300000" lon="5.046500000">
        <ele>54.000000</ele>
        <time>2021-03-31T16:34:02Z</time>
      </trkpt>
      <trkpt lat="43.617320000" lon="5.046180000">
        <ele>53.000000</ele>
        <time>2021-03-31T16:34:33Z</time>
      </trkpt>
      <trkpt lat="43.617120000" lon="5.045690000">
        <ele>55.000000</ele>
        <time>2021-03-31T16:35:28Z</time>
      </trkpt>
      <trkpt lat="43.617030000" lon="5.045170000">
        <ele>57.000000</ele>
        <time>2021-03-31T16:36:19Z</time>
      </trkpt>
      <trkpt lat="43.617040000" lon="5.045030000">
        <ele>57.000000</ele>
        <time>2021-03-31T16:36:33Z</time>
      </trkpt>
      <trkpt lat="43.616990000" lon="5.044900000">
        <ele>58.000000</ele>
        <time>2021-03-31T16:36:47Z</time>
      </trkpt>
      <trkpt lat="43.616990000" lon="5.044680000">
        <ele>58.000000</ele>
        <time>2021-03-31T16:37:08Z</time>
      </trkpt>
      <trkpt lat="43.616910000" lon="5.044050000">
        <ele>58.000000</ele>
        <time>2021-03-31T16:38:10Z</time>
      </trkpt>
      <trkpt lat="43.616850000" lon="5.042990000">
        <ele>57.000000</ele>
        <time>2021-03-31T16:39:53Z</time>
      </trkpt>
      <trkpt lat="43.616950000" lon="5.042210000">
        <ele>55.000000</ele>
        <time>2021-03-31T16:41:09Z</time>
      </trkpt>
      <trkpt lat="43.617050000" lon="5.041740000">
        <ele>54.000000</ele>
        <time>2021-03-31T16:41:57Z</time>
      </trkpt>
      <trkpt lat="43.617000000" lon="5.041500000">
        <ele>54.000000</ele>
        <time>2021-03-31T16:42:21Z</time>
      </trkpt>
      <trkpt lat="43.616990000" lon="5.041240000">
        <ele>54.000000</ele>
        <time>2021-03-31T16:42:46Z</time>
      </trkpt>
      <trkpt lat="43.616910000" lon="5.041040000">
        <ele>54.000000</ele>
        <time>2021-03-31T16:43:08Z</time>
      </trkpt>
      <trkpt lat="43.616560000" lon="5.040760000">
        <ele>55.000000</ele>
        <time>2021-03-31T16:44:02Z</time>
      </trkpt>
      <trkpt lat="43.616240000" lon="5.040390000">
        <ele>55.000000</ele>
        <time>2021-03-31T16:44:58Z</time>
      </trkpt>
      <trkpt lat="43.615950000" lon="5.039750000">
        <ele>55.000000</ele>
        <time>2021-03-31T16:46:11Z</time>
      </trkpt>
      <trkpt lat="43.615800000" lon="5.039350000">
        <ele>54.000000</ele>
        <time>2021-03-31T16:46:54Z</time>
      </trkpt>
      <trkpt lat="43.615670000" lon="5.039140000">
        <ele>54.000000</ele>
        <time>2021-03-31T16:47:21Z</time>
      </trkpt>
      <trkpt lat="43.615450000" lon="5.039010000">
        <ele>56.000000</ele>
        <time>2021-03-31T16:47:53Z</time>
      </trkpt>
      <trkpt lat="43.615060000" lon="5.038590000">
        <ele>56.000000</ele>
        <time>2021-03-31T16:48:59Z</time>
      </trkpt>
      <trkpt lat="43.614580000" lon="5.038380000">
        <ele>55.000000</ele>
        <time>2021-03-31T16:50:06Z</time>
      </trkpt>
      <trkpt lat="43.614540000" lon="5.038190000">
        <ele>55.000000</ele>
        <time>2021-03-31T16:50:25Z</time>
      </trkpt>
      <trkpt lat="43.614650000" lon="5.037770000">
        <ele>57.000000</ele>
        <time>2021-03-31T16:51:08Z</time>
      </trkpt>
      <trkpt lat="43.614740000" lon="5.037570000">
        <ele>58.000000</ele>
        <time>2021-03-31T16:51:31Z</time>
      </trkpt>
      <trkpt lat="43.614910000" lon="5.037410000">
        <ele>59.000000</ele>
        <time>2021-03-31T16:51:59Z</time>
      </trkpt>
      <trkpt lat="43.615250000" lon="5.037150000">
        <ele>60.000000</ele>
        <time>2021-03-31T16:52:50Z</time>
      </trkpt>
      <trkpt lat="43.615550000" lon="5.036770000">
        <ele>62.000000</ele>
        <time>2021-03-31T16:53:45Z</time>
      </trkpt>
      <trkpt lat="43.616250000" lon="5.036050000">
        <ele>62.000000</ele>
        <time>2021-03-31T16:55:41Z</time>
      </trkpt>
      <trkpt lat="43.616330000" lon="5.035930000">
        <ele>62.000000</ele>
        <time>2021-03-31T16:55:57Z</time>
      </trkpt>
      <trkpt lat="43.616310000" lon="5.035640000">
        <ele>63.000000</ele>
        <time>2021-03-31T16:56:25Z</time>
      </trkpt>
      <trkpt lat="43.616130000" lon="5.034990000">
        <ele>65.000000</ele>
        <time>2021-03-31T16:57:32Z</time>
      </trkpt>
      <trkpt lat="43.616000000" lon="5.034690000">
        <ele>65.000000</ele>
        <time>2021-03-31T16:58:06Z</time>
      </trkpt>
      <trkpt lat="43.615720000" lon="5.034210000">
        <ele>66.000000</ele>
        <time>2021-03-31T16:59:06Z</time>
      </trkpt>
      <trkpt lat="43.615580000" lon="5.033870000">
        <ele>66.000000</ele>
        <time>2021-03-31T16:59:43Z</time>
      </trkpt>
      <trkpt lat="43.615300000" lon="5.033450000">
        <ele>68.000000</ele>
        <time>2021-03-31T17:00:39Z</time>
      </trkpt>
      <trkpt lat="43.615220000" lon="5.033160000">
        <ele>68.000000</ele>
        <time>2021-03-31T17:01:09Z</time>
      </trkpt>
      <trkpt lat="43.614930000" lon="5.032710000">
        <ele>69.000000</ele>
        <time>2021-03-31T17:02:07Z</time>
      </trkpt>
      <trkpt lat="43.614780000" lon="5.032570000">
        <ele>71.000000</ele>
        <time>2021-03-31T17:02:31Z</time>
      </trkpt>
      <trkpt lat="43.614100000" lon="5.032080000">
        <ele>74.000000</ele>
        <time>2021-03-31T17:04:13Z</time>
      </trkpt>
      <trkpt lat="43.613460000" lon="5.031580000">
        <ele>76.000000</ele>
        <time>2021-03-31T17:05:51Z</time>
      </trkpt>
      <trkpt lat="43.612990000" lon="5.031320000">
        <ele>77.000000</ele>
        <time>2021-03-31T17:06:59Z</time>
      </trkpt>
      <trkpt lat="43.612820000" lon="5.031190000">
        <ele>77.000000</ele>
        <time>2021-03-31T17:07:25Z</time>
      </trkpt>
      <trkpt lat="43.612290000" lon="5.030680000">
        <ele>76.000000</ele>
        <time>2021-03-31T17:08:51Z</time>
      </trkpt>
      <trkpt lat="43.611730000" lon="5.030310000">
        <ele>76.000000</ele>
        <time>2021-03-31T17:10:14Z</time>
      </trkpt>
      <trkpt lat="43.611360000" lon="5.030030000">
        <ele>76.000000</ele>
        <time>2021-03-31T17:11:10Z</time>
      </trkpt>
      <trkpt lat="43.611160000" lon="5.029860000">
        <ele>77.000000</ele>
        <time>2021-03-31T17:11:42Z</time>
      </trkpt>
      <trkpt lat="43.610780000" lon="5.029470000">
        <ele>76.000000</ele>
        <time>2021-03-31T17:12:45Z</time>
      </trkpt>
      <trkpt lat="43.610650000" lon="5.029280000">
        <ele>76.000000</ele>
        <time>2021-03-31T17:13:10Z</time>
      </trkpt>
      <trkpt lat="43.610480000" lon="5.028810000">
        <ele>73.000000</ele>
        <time>2021-03-31T17:14:01Z</time>
      </trkpt>
      <trkpt lat="43.610200000" lon="5.027810000">
        <ele>71.000000</ele>
        <time>2021-03-31T17:15:44Z</time>
      </trkpt>
      <trkpt lat="43.609750000" lon="5.026580000">
        <ele>70.000000</ele>
        <time>2021-03-31T17:17:58Z</time>
      </trkpt>
      <trkpt lat="43.609540000" lon="5.025930000">
        <ele>70.000000</ele>
        <time>2021-03-31T17:19:06Z</time>
      </trkpt>
      <trkpt lat="43.609300000" lon="5.024610000">
        <ele>69.000000</ele>
        <time>2021-03-31T17:21:18Z</time>
      </trkpt>
      <trkpt lat="43.609180000" lon="5.023520000">
        <ele>67.000000</ele>
        <time>2021-03-31T17:23:04Z</time>
      </trkpt>
      <trkpt lat="43.609140000" lon="5.023490000">
        <ele>68.000000</ele>
        <time>2021-03-31T17:23:10Z</time>
      </trkpt>
      <trkpt lat="43.608980000" lon="5.023510000">
        <ele>68.000000</ele>
        <time>2021-03-31T17:23:32Z</time>
      </trkpt>
      <trkpt lat="43.608880000" lon="5.023570000">
        <ele>69.000000</ele>
        <time>2021-03-31T17:23:46Z</time>
      </trkpt>
      <trkpt lat="43.608740000" lon="5.023760000">
        <ele>70.000000</ele>
        <time>2021-03-31T17:24:13Z</time>
      </trkpt>
      <trkpt lat="43.608630000" lon="5.023790000">
        <ele>71.000000</ele>
        <time>2021-03-31T17:24:28Z</time>
      </trkpt>
      <trkpt lat="43.608530000" lon="5.023760000">
        <ele>71.000000</ele>
        <time>2021-03-31T17:24:41Z</time>
      </trkpt>
      <trkpt lat="43.608310000" lon="5.023630000">
        <ele>72.000000</ele>
        <time>2021-03-31T17:25:13Z</time>
      </trkpt>
      <trkpt lat="43.607690000" lon="5.022910000">
        <ele>71.000000</ele>
        <time>2021-03-31T17:27:01Z</time>
      </trkpt>
      <trkpt lat="43.607480000" lon="5.022780000">
        <ele>70.000000</ele>
        <time>2021-03-31T17:27:32Z</time>
      </trkpt>
      <trkpt lat="43.607260000" lon="5.022830000">
        <ele>71.000000</ele>
        <time>2021-03-31T17:28:02Z</time>
      </trkpt>
      <trkpt lat="43.607030000" lon="5.022940000">
        <ele>73.000000</ele>
        <time>2021-03-31T17:28:34Z</time>
      </trkpt>
      <trkpt lat="43.606610000" lon="5.023310000">
        <ele>76.000000</ele>
        <time>2021-03-31T17:29:41Z</time>
      </trkpt>
      <trkpt lat="43.606420000" lon="5.023520000">
        <ele>77.000000</ele>
        <time>2021-03-31T17:30:13Z</time>
      </trkpt>
      <trkpt lat="43.606040000" lon="5.023690000">
        <ele>78.000000</ele>
        <time>2021-03-31T17:31:06Z</time>
      </trkpt>
      <trkpt lat="43.605820000" lon="5.023650000">
        <ele>78.000000</ele>
        <time>2021-03-31T17:31:36Z</time>
      </trkpt>
      <trkpt lat="43.605620000" lon="5.023550000">
        <ele>79.000000</ele>
        <time>2021-03-31T17:32:04Z</time>
      </trkpt>
      <trkpt lat="43.605190000" lon="5.023320000">
        <ele>80.000000</ele>
        <time>2021-03-31T17:33:06Z</time>
      </trkpt>
      <trkpt lat="43.604850000" lon="5.023080000">
        <ele>82.000000</ele>
        <time>2021-03-31T17:33:57Z</time>
      </trkpt>
      <trkpt lat="43.604210000" lon="5.023180000">
        <ele>82.000000</ele>
        <time>2021-03-31T17:35:23Z</time>
      </trkpt>
      <trkpt lat="43.603880000" lon="5.023150000">
        <ele>80.000000</ele>
        <time>2021-03-31T17:36:07Z</time>
      </trkpt>
      <trkpt lat="43.603850000" lon="5.023130000">
        <ele>80.000000</ele>
        <time>2021-03-31T17:36:11Z</time>
      </trkpt>
      <trkpt lat="43.603990000" lon="5.022550000">
        <ele>78.000000</ele>
        <time>2021-03-31T17:37:11Z</time>
      </trkpt>
      <trkpt lat="43.604000000" lon="5.022110000">
        <ele>76.000000</ele>
        <time>2021-03-31T17:37:53Z</time>
      </trkpt>
      <trkpt lat="43.603990000" lon="5.021980000">
        <ele>75.000000</ele>
        <time>2021-03-31T17:38:06Z</time>
      </trkpt>
      <trkpt lat="43.603930000" lon="5.021780000">
        <ele>74.000000</ele>
        <time>2021-03-31T17:38:27Z</time>
      </trkpt>
      <trkpt lat="43.603850000" lon="5.021070000">
        <ele>69.000000</ele>
        <time>2021-03-31T17:39:36Z</time>
      </trkpt>
      <trkpt lat="43.603680000" lon="5.021080000">
        <ele>69.000000</ele>
        <time>2021-03-31T17:39:59Z</time>
      </trkpt>
      <trkpt lat="43.602930000" lon="5.021410000">
        <ele>67.000000</ele>
        <time>2021-03-31T17:41:44Z</time>
      </trkpt>
      <trkpt lat="43.601840000" lon="5.021820000">
        <ele>68.000000</ele>
        <time>2021-03-31T17:44:15Z</time>
      </trkpt>
      <trkpt lat="43.601800000" lon="5.021800000">
        <ele>68.000000</ele>
        <time>2021-03-31T17:44:20Z</time>
      </trkpt>
      <trkpt lat="43.601560000" lon="5.021820000">
        <ele>69.000000</ele>
        <time>2021-03-31T17:44:52Z</time>
      </trkpt>
      <trkpt lat="43.601450000" lon="5.021790000">
        <ele>69.000000</ele>
        <time>2021-03-31T17:45:07Z</time>
      </trkpt>
      <trkpt lat="43.601110000" lon="5.021640000">
        <ele>69.000000</ele>
        <time>2021-03-31T17:45:55Z</time>
      </trkpt>
      <trkpt lat="43.600730000" lon="5.021400000">
        <ele>68.000000</ele>
        <time>2021-03-31T17:46:51Z</time>
      </trkpt>
      <trkpt lat="43.600560000" lon="5.021510000">
        <ele>68.000000</ele>
        <time>2021-03-31T17:47:16Z</time>
      </trkpt>
      <trkpt lat="43.600220000" lon="5.021880000">
        <ele>70.000000</ele>
        <time>2021-03-31T17:48:14Z</time>
      </trkpt>
      <trkpt lat="43.599930000" lon="5.022240000">
        <ele>72.000000</ele>
        <time>2021-03-31T17:49:06Z</time>
      </trkpt>
      <trkpt lat="43.599860000" lon="5.022270000">
        <ele>72.000000</ele>
        <time>2021-03-31T17:49:15Z</time>
      </trkpt>
      <trkpt lat="43.599670000" lon="5.022290000">
        <ele>72.000000</ele>
        <time>2021-03-31T17:49:41Z</time>
      </trkpt>
      <trkpt lat="43.599250000" lon="5.022240000">
        <ele>72.000000</ele>
        <time>2021-03-31T17:50:37Z</time>
      </trkpt>
      <trkpt lat="43.598910000" lon="5.022000000">
        <ele>68.000000</ele>
        <time>2021-03-31T17:51:28Z</time>
      </trkpt>
      <trkpt lat="43.598740000" lon="5.022090000">
        <ele>67.000000</ele>
        <time>2021-03-31T17:51:52Z</time>
      </trkpt>
      <trkpt lat="43.598560000" lon="5.022560000">
        <ele>69.000000</ele>
        <time>2021-03-31T17:52:44Z</time>
      </trkpt>
      <trkpt lat="43.598410000" lon="5.023250000">
        <ele>69.000000</ele>
        <time>2021-03-31T17:53:53Z</time>
      </trkpt>
      <trkpt lat="43.598350000" lon="5.023390000">
        <ele>68.000000</ele>
        <time>2021-03-31T17:54:09Z</time>
      </trkpt>
      <trkpt lat="43.598050000" lon="5.023850000">
        <ele>66.000000</ele>
        <time>2021-03-31T17:55:09Z</time>
      </trkpt>
      <trkpt lat="43.597870000" lon="5.024370000">
        <ele>65.000000</ele>
        <time>2021-03-31T17:56:05Z</time>
      </trkpt>
      <trkpt lat="43.597810000" lon="5.024630000">
        <ele>65.000000</ele>
        <time>2021-03-31T17:56:31Z</time>
      </trkpt>
      <trkpt lat="43.597870000" lon="5.024990000">
        <ele>66.000000</ele>
        <time>2021-03-31T17:57:07Z</time>
      </trkpt>
      <trkpt lat="43.597880000" lon="5.025430000">
        <ele>67.000000</ele>
        <time>2021-03-31T17:57:49Z</time>
      </trkpt>
      <trkpt lat="43.597860000" lon="5.025580000">
        <ele>68.000000</ele>
        <time>2021-03-31T17:58:04Z</time>
      </trkpt>
      <trkpt lat="43.597700000" lon="5.025820000">
        <ele>67.000000</ele>
        <time>2021-03-31T17:58:35Z</time>
      </trkpt>
      <trkpt lat="43.597440000" lon="5.026070000">
        <ele>66.000000</ele>
        <time>2021-03-31T17:59:18Z</time>
      </trkpt>
      <trkpt lat="43.597310000" lon="5.026230000">
        <ele>66.000000</ele>
        <time>2021-03-31T17:59:41Z</time>
      </trkpt>
      <trkpt lat="43.597140000" lon="5.026620000">
        <ele>66.000000</ele>
        <time>2021-03-31T18:00:25Z</time>
      </trkpt>
      <trkpt lat="43.597150000" lon="5.026800000">
        <ele>67.000000</ele>
        <time>2021-03-31T18:00:42Z</time>
      </trkpt>
      <trkpt lat="43.597300000" lon="5.026950000">
        <ele>68.000000</ele>
        <time>2021-03-31T18:01:07Z</time>
      </trkpt>
      <trkpt lat="43.597300000" lon="5.027200000">
        <ele>69.000000</ele>
        <time>2021-03-31T18:01:31Z</time>
      </trkpt>
      <trkpt lat="43.597220000" lon="5.027510000">
        <ele>69.000000</ele>
        <time>2021-03-31T18:02:03Z</time>
      </trkpt>
      <trkpt lat="43.597190000" lon="5.027790000">
        <ele>69.000000</ele>
        <time>2021-03-31T18:02:30Z</time>
      </trkpt>
      <trkpt lat="43.597130000" lon="5.027990000">
        <ele>69.000000</ele>
        <time>2021-03-31T18:02:51Z</time>
      </trkpt>
      <trkpt lat="43.596950000" lon="5.028280000">
        <ele>69.000000</ele>
        <time>2021-03-31T18:03:28Z</time>
      </trkpt>
      <trkpt lat="43.596890000" lon="5.028330000">
        <ele>69.000000</ele>
        <time>2021-03-31T18:03:38Z</time>
      </trkpt>
      <trkpt lat="43.596610000" lon="5.028290000">
        <ele>68.000000</ele>
        <time>2021-03-31T18:04:15Z</time>
      </trkpt>
      <trkpt lat="43.596400000" lon="5.028320000">
        <ele>67.000000</ele>
        <time>2021-03-31T18:04:43Z</time>
      </trkpt>
      <trkpt lat="43.596320000" lon="5.028700000">
        <ele>66.000000</ele>
        <time>2021-03-31T18:05:22Z</time>
      </trkpt>
      <trkpt lat="43.596190000" lon="5.028840000">
        <ele>66.000000</ele>
        <time>2021-03-31T18:05:44Z</time>
      </trkpt>
      <trkpt lat="43.596010000" lon="5.028920000">
        <ele>65.000000</ele>
        <time>2021-03-31T18:06:09Z</time>
      </trkpt>
      <trkpt lat="43.595990000" lon="5.029110000">
        <ele>65.000000</ele>
        <time>2021-03-31T18:06:27Z</time>
      </trkpt>
      <trkpt lat="43.596330000" lon="5.031260000">
        <ele>66.000000</ele>
        <time>2021-03-31T18:10:00Z</time>
      </trkpt>
      <trkpt lat="43.596270000" lon="5.031490000">
        <ele>67.000000</ele>
        <time>2021-03-31T18:10:24Z</time>
      </trkpt>
      <trkpt lat="43.595800000" lon="5.032680000">
        <ele>67.000000</ele>
        <time>2021-03-31T18:12:35Z</time>
      </trkpt>
      <trkpt lat="43.595750000" lon="5.032960000">
        <ele>67.000000</ele>
        <time>2021-03-31T18:13:03Z</time>
      </trkpt>
      <trkpt lat="43.595610000" lon="5.033450000">
        <ele>67.000000</ele>
        <time>2021-03-31T18:13:53Z</time>
      </trkpt>
      <trkpt lat="43.595430000" lon="5.033620000">
        <ele>67.000000</ele>
        <time>2021-03-31T18:14:23Z</time>
      </trkpt>
      <trkpt lat="43.595230000" lon="5.033760000">
        <ele>66.000000</ele>
        <time>2021-03-31T18:14:52Z</time>
      </trkpt>
      <trkpt lat="43.595200000" lon="5.033810000">
        <ele>66.000000</ele>
        <time>2021-03-31T18:14:59Z</time>
      </trkpt>
      <trkpt lat="43.595250000" lon="5.033850000">
        <ele>66.000000</ele>
        <time>2021-03-31T18:15:06Z</time>
      </trkpt>
      <trkpt lat="43.595300000" lon="5.033850000">
        <ele>67.000000</ele>
        <time>2021-03-31T18:15:13Z</time>
      </trkpt>
      <trkpt lat="43.595590000" lon="5.033590000">
        <ele>67.000000</ele>
        <time>2021-03-31T18:15:59Z</time>
      </trkpt>
      <trkpt lat="43.595830000" lon="5.033550000">
        <ele>67.000000</ele>
        <time>2021-03-31T18:16:32Z</time>
      </trkpt>
      <trkpt lat="43.596020000" lon="5.033410000">
        <ele>67.000000</ele>
        <time>2021-03-31T18:17:00Z</time>
      </trkpt>
      <trkpt lat="43.596240000" lon="5.033110000">
        <ele>67.000000</ele>
        <time>2021-03-31T18:17:42Z</time>
      </trkpt>
      <trkpt lat="43.596830000" lon="5.032210000">
        <ele>68.000000</ele>
        <time>2021-03-31T18:19:39Z</time>
      </trkpt>
      <trkpt lat="43.597490000" lon="5.031260000">
        <ele>68.000000</ele>
        <time>2021-03-31T18:21:46Z</time>
      </trkpt>
      <trkpt lat="43.597900000" lon="5.030560000">
        <ele>71.000000</ele>
        <time>2021-03-31T18:23:13Z</time>
      </trkpt>
      <trkpt lat="43.598230000" lon="5.030070000">
        <ele>72.000000</ele>
        <time>2021-03-31T18:24:18Z</time>
      </trkpt>
      <trkpt lat="43.598280000" lon="5.029890000">
        <ele>72.000000</ele>
        <time>2021-03-31T18:24:36Z</time>
      </trkpt>
      <trkpt lat="43.598250000" lon="5.029150000">
        <ele>71.000000</ele>
        <time>2021-03-31T18:25:48Z</time>
      </trkpt>
      <trkpt lat="43.598280000" lon="5.029100000">
        <ele>71.000000</ele>
        <time>2021-03-31T18:25:54Z</time>
      </trkpt>
      <trkpt lat="43.598450000" lon="5.029030000">
        <ele>73.000000</ele>
        <time>2021-03-31T18:26:18Z</time>
      </trkpt>
      <trkpt lat="43.599010000" lon="5.029030000">
        <ele>78.000000</ele>
        <time>2021-03-31T18:27:33Z</time>
      </trkpt>
      <trkpt lat="43.599360000" lon="5.029200000">
        <ele>81.000000</ele>
        <time>2021-03-31T18:28:22Z</time>
      </trkpt>
      <trkpt lat="43.599690000" lon="5.029170000">
        <ele>85.000000</ele>
        <time>2021-03-31T18:29:06Z</time>
      </trkpt>
      <trkpt lat="43.599820000" lon="5.029070000">
        <ele>87.000000</ele>
        <time>2021-03-31T18:29:26Z</time>
      </trkpt>
      <trkpt lat="43.599980000" lon="5.029070000">
        <ele>89.000000</ele>
        <time>2021-03-31T18:29:48Z</time>
      </trkpt>
      <trkpt lat="43.600040000" lon="5.029170000">
        <ele>89.000000</ele>
        <time>2021-03-31T18:30:00Z</time>
      </trkpt>
      <trkpt lat="43.600480000" lon="5.029700000">
        <ele>90.000000</ele>
        <time>2021-03-31T18:31:18Z</time>
      </trkpt>
      <trkpt lat="43.600510000" lon="5.029750000">
        <ele>90.000000</ele>
        <time>2021-03-31T18:31:24Z</time>
      </trkpt>
      <trkpt lat="43.600600000" lon="5.030120000">
        <ele>91.000000</ele>
        <time>2021-03-31T18:32:02Z</time>
      </trkpt>
      <trkpt lat="43.600830000" lon="5.030440000">
        <ele>94.000000</ele>
        <time>2021-03-31T18:32:46Z</time>
      </trkpt>
      <trkpt lat="43.600980000" lon="5.030620000">
        <ele>95.000000</ele>
        <time>2021-03-31T18:33:12Z</time>
      </trkpt>
      <trkpt lat="43.601140000" lon="5.030730000">
        <ele>96.000000</ele>
        <time>2021-03-31T18:33:36Z</time>
      </trkpt>
      <trkpt lat="43.601380000" lon="5.030770000">
        <ele>98.000000</ele>
        <time>2021-03-31T18:34:08Z</time>
      </trkpt>
      <trkpt lat="43.601470000" lon="5.030890000">
        <ele>99.000000</ele>
        <time>2021-03-31T18:34:25Z</time>
      </trkpt>
      <trkpt lat="43.601900000" lon="5.031940000">
        <ele>104.000000</ele>
        <time>2021-03-31T18:36:21Z</time>
      </trkpt>
      <trkpt lat="43.601990000" lon="5.032210000">
        <ele>104.000000</ele>
        <time>2021-03-31T18:36:50Z</time>
      </trkpt>
      <trkpt lat="43.602380000" lon="5.033030000">
        <ele>105.000000</ele>
        <time>2021-03-31T18:38:25Z</time>
      </trkpt>
      <trkpt lat="43.602420000" lon="5.033260000">
        <ele>105.000000</ele>
        <time>2021-03-31T18:38:48Z</time>
      </trkpt>
      <trkpt lat="43.602390000" lon="5.033390000">
        <ele>105.000000</ele>
        <time>2021-03-31T18:39:01Z</time>
      </trkpt>
      <trkpt lat="43.602310000" lon="5.033400000">
        <ele>105.000000</ele>
        <time>2021-03-31T18:39:12Z</time>
      </trkpt>
      <trkpt lat="43.602380000" lon="5.033450000">
        <ele>105.000000</ele>
        <time>2021-03-31T18:39:22Z</time>
      </trkpt>
      <trkpt lat="43.602240000" lon="5.034440000">
        <ele>104.000000</ele>
        <time>2021-03-31T18:41:00Z</time>
      </trkpt>
      <trkpt lat="43.602160000" lon="5.034670000">
        <ele>104.000000</ele>
        <time>2021-03-31T18:41:24Z</time>
      </trkpt>
      <trkpt lat="43.601420000" lon="5.035440000">
        <ele>99.000000</ele>
        <time>2021-03-31T18:43:28Z</time>
      </trkpt>
      <trkpt lat="43.601350000" lon="5.035460000">
        <ele>98.000000</ele>
        <time>2021-03-31T18:43:38Z</time>
      </trkpt>
      <trkpt lat="43.601270000" lon="5.035520000">
        <ele>98.000000</ele>
        <time>2021-03-31T18:43:50Z</time>
      </trkpt>
      <trkpt lat="43.600600000" lon="5.036230000">
        <ele>91.000000</ele>
        <time>2021-03-31T18:45:42Z</time>
      </trkpt>
      <trkpt lat="43.600320000" lon="5.036590000">
        <ele>88.000000</ele>
        <time>2021-03-31T18:46:33Z</time>
      </trkpt>
      <trkpt lat="43.600120000" lon="5.036800000">
        <ele>87.000000</ele>
        <time>2021-03-31T18:47:07Z</time>
      </trkpt>
      <trkpt lat="43.599840000" lon="5.037170000">
        <ele>85.000000</ele>
        <time>2021-03-31T18:47:59Z</time>
      </trkpt>
      <trkpt lat="43.599760000" lon="5.037320000">
        <ele>84.000000</ele>
        <time>2021-03-31T18:48:17Z</time>
      </trkpt>
      <trkpt lat="43.599460000" lon="5.037690000">
        <ele>82.000000</ele>
        <time>2021-03-31T18:49:10Z</time>
      </trkpt>
      <trkpt lat="43.599280000" lon="5.037970000">
        <ele>80.000000</ele>
        <time>2021-03-31T18:49:47Z</time>
      </trkpt>
      <trkpt lat="43.599270000" lon="5.038160000">
        <ele>80.000000</ele>
        <time>2021-03-31T18:50:05Z</time>
      </trkpt>
      <trkpt lat="43.599420000" lon="5.038410000">
        <ele>82.000000</ele>
        <time>2021-03-31T18:50:36Z</time>
      </trkpt>
      <trkpt lat="43.599490000" lon="5.038470000">
        <ele>82.000000</ele>
        <time>2021-03-31T18:50:47Z</time>
      </trkpt>
      <trkpt lat="43.599660000" lon="5.038550000">
        <ele>84.000000</ele>
        <time>2021-03-31T18:51:11Z</time>
      </trkpt>
      <trkpt lat="43.599790000" lon="5.038560000">
        <ele>86.000000</ele>
        <time>2021-03-31T18:51:29Z</time>
      </trkpt>
      <trkpt lat="43.599860000" lon="5.038660000">
        <ele>86.000000</ele>
        <time>2021-03-31T18:51:42Z</time>
      </trkpt>
      <trkpt lat="43.599920000" lon="5.038810000">
        <ele>87.000000</ele>
        <time>2021-03-31T18:51:59Z</time>
      </trkpt>
      <trkpt lat="43.600010000" lon="5.039170000">
        <ele>89.000000</ele>
        <time>2021-03-31T18:52:36Z</time>
      </trkpt>
      <trkpt lat="43.600030000" lon="5.039340000">
        <ele>89.000000</ele>
        <time>2021-03-31T18:52:52Z</time>
      </trkpt>
      <trkpt lat="43.600280000" lon="5.039920000">
        <ele>89.000000</ele>
        <time>2021-03-31T18:53:57Z</time>
      </trkpt>
      <trkpt lat="43.600540000" lon="5.040430000">
        <ele>89.000000</ele>
        <time>2021-03-31T18:54:58Z</time>
      </trkpt>
      <trkpt lat="43.600550000" lon="5.040740000">
        <ele>88.000000</ele>
        <time>2021-03-31T18:55:28Z</time>
      </trkpt>
      <trkpt lat="43.600670000" lon="5.041000000">
        <ele>87.000000</ele>
        <time>2021-03-31T18:55:57Z</time>
      </trkpt>
      <trkpt lat="43.600710000" lon="5.041170000">
        <ele>86.000000</ele>
        <time>2021-03-31T18:56:15Z</time>
      </trkpt>
      <trkpt lat="43.600610000" lon="5.041250000">
        <ele>85.000000</ele>
        <time>2021-03-31T18:56:30Z</time>
      </trkpt>
      <trkpt lat="43.600510000" lon="5.041390000">
        <ele>84.000000</ele>
        <time>2021-03-31T18:56:49Z</time>
      </trkpt>
      <trkpt lat="43.600500000" lon="5.041620000">
        <ele>83.000000</ele>
        <time>2021-03-31T18:57:11Z</time>
      </trkpt>
      <trkpt lat="43.600290000" lon="5.041820000">
        <ele>81.000000</ele>
        <time>2021-03-31T18:57:45Z</time>
      </trkpt>
      <trkpt lat="43.600150000" lon="5.041920000">
        <ele>81.000000</ele>
        <time>2021-03-31T18:58:06Z</time>
      </trkpt>
      <trkpt lat="43.600000000" lon="5.041980000">
        <ele>81.000000</ele>
        <time>2021-03-31T18:58:27Z</time>
      </trkpt>
      <trkpt lat="43.599900000" lon="5.042170000">
        <ele>79.000000</ele>
        <time>2021-03-31T18:58:50Z</time>
      </trkpt>
      <trkpt lat="43.599770000" lon="5.042310000">
        <ele>77.000000</ele>
        <time>2021-03-31T18:59:12Z</time>
      </trkpt>
      <trkpt lat="43.599700000" lon="5.042560000">
        <ele>75.000000</ele>
        <time>2021-03-31T18:59:38Z</time>
      </trkpt>
      <trkpt lat="43.599590000" lon="5.042690000">
        <ele>74.000000</ele>
        <time>2021-03-31T18:59:57Z</time>
      </trkpt>
      <trkpt lat="43.599500000" lon="5.042970000">
        <ele>72.000000</ele>
        <time>2021-03-31T19:00:27Z</time>
      </trkpt>
      <trkpt lat="43.599370000" lon="5.043170000">
        <ele>71.000000</ele>
        <time>2021-03-31T19:00:53Z</time>
      </trkpt>
      <trkpt lat="43.599230000" lon="5.043270000">
        <ele>72.000000</ele>
        <time>2021-03-31T19:01:14Z</time>
      </trkpt>
      <trkpt lat="43.599090000" lon="5.043260000">
        <ele>73.000000</ele>
        <time>2021-03-31T19:01:33Z</time>
      </trkpt>
      <trkpt lat="43.599030000" lon="5.043430000">
        <ele>72.000000</ele>
        <time>2021-03-31T19:01:51Z</time>
      </trkpt>
      <trkpt lat="43.599020000" lon="5.043580000">
        <ele>71.000000</ele>
        <time>2021-03-31T19:02:05Z</time>
      </trkpt>
      <trkpt lat="43.599040000" lon="5.043620000">
        <ele>71.000000</ele>
        <time>2021-03-31T19:02:10Z</time>
      </trkpt>
      <trkpt lat="43.599280000" lon="5.043700000">
        <ele>69.000000</ele>
        <time>2021-03-31T19:02:43Z</time>
      </trkpt>
      <trkpt lat="43.599630000" lon="5.044010000">
        <ele>61.000000</ele>
        <time>2021-03-31T19:03:39Z</time>
      </trkpt>
      <trkpt lat="43.600330000" lon="5.044420000">
        <ele>51.000000</ele>
        <time>2021-03-31T19:05:20Z</time>
      </trkpt>
      <trkpt lat="43.600600000" lon="5.044640000">
        <ele>50.000000</ele>
        <time>2021-03-31T19:06:02Z</time>
      </trkpt>
      <trkpt lat="43.600680000" lon="5.044800000">
        <ele>49.000000</ele>
        <time>2021-03-31T19:06:21Z</time>
      </trkpt>
      <trkpt lat="43.600700000" lon="5.045060000">
        <ele>47.000000</ele>
        <time>2021-03-31T19:06:46Z</time>
      </trkpt>
      <trkpt lat="43.600640000" lon="5.045320000">
        <ele>46.000000</ele>
        <time>2021-03-31T19:07:12Z</time>
      </trkpt>
      <trkpt lat="43.600520000" lon="5.045410000">
        <ele>45.000000</ele>
        <time>2021-03-31T19:07:30Z</time>
      </trkpt>
      <trkpt lat="43.600160000" lon="5.045370000">
        <ele>45.000000</ele>
        <time>2021-03-31T19:08:19Z</time>
      </trkpt>
      <trkpt lat="43.600120000" lon="5.045390000">
        <ele>44.000000</ele>
        <time>2021-03-31T19:08:24Z</time>
      </trkpt>
      <trkpt lat="43.600320000" lon="5.045700000">
        <ele>44.000000</ele>
        <time>2021-03-31T19:09:04Z</time>
      </trkpt>
      <trkpt lat="43.600400000" lon="5.045940000">
        <ele>43.000000</ele>
        <time>2021-03-31T19:09:30Z</time>
      </trkpt>
      <trkpt lat="43.600400000" lon="5.046100000">
        <ele>43.000000</ele>
        <time>2021-03-31T19:09:45Z</time>
      </trkpt>
      <trkpt lat="43.600790000" lon="5.047230000">
        <ele>45.000000</ele>
        <time>2021-03-31T19:11:46Z</time>
      </trkpt>
      <trkpt lat="43.601040000" lon="5.048070000">
        <ele>48.000000</ele>
        <time>2021-03-31T19:13:14Z</time>
      </trkpt>
      <trkpt lat="43.601000000" lon="5.048520000">
        <ele>51.000000</ele>
        <time>2021-03-31T19:13:58Z</time>
      </trkpt>
      <trkpt lat="43.601030000" lon="5.048670000">
        <ele>53.000000</ele>
        <time>2021-03-31T19:14:13Z</time>
      </trkpt>
      <trkpt lat="43.601200000" lon="5.049070000">
        <ele>56.000000</ele>
        <time>2021-03-31T19:14:58Z</time>
      </trkpt>
      <trkpt lat="43.601220000" lon="5.049310000">
        <ele>58.000000</ele>
        <time>2021-03-31T19:15:21Z</time>
      </trkpt>
      <trkpt lat="43.601010000" lon="5.049480000">
        <ele>63.000000</ele>
        <time>2021-03-31T19:15:54Z</time>
      </trkpt>
      <trkpt lat="43.600760000" lon="5.049390000">
        <ele>62.000000</ele>
        <time>2021-03-31T19:16:28Z</time>
      </trkpt>
      <trkpt lat="43.600320000" lon="5.049370000">
        <ele>60.000000</ele>
        <time>2021-03-31T19:17:27Z</time>
      </trkpt>
      <trkpt lat="43.599720000" lon="5.049540000">
        <ele>62.000000</ele>
        <time>2021-03-31T19:18:49Z</time>
      </trkpt>
      <trkpt lat="43.599570000" lon="5.049660000">
        <ele>65.000000</ele>
        <time>2021-03-31T19:19:12Z</time>
      </trkpt>
      <trkpt lat="43.599380000" lon="5.049670000">
        <ele>65.000000</ele>
        <time>2021-03-31T19:19:37Z</time>
      </trkpt>
      <trkpt lat="43.599250000" lon="5.049730000">
        <ele>66.000000</ele>
        <time>2021-03-31T19:19:55Z</time>
      </trkpt>
      <trkpt lat="43.599050000" lon="5.049880000">
        <ele>69.000000</ele>
        <time>2021-03-31T19:20:26Z</time>
      </trkpt>
      <trkpt lat="43.599020000" lon="5.049860000">
        <ele>68.000000</ele>
        <time>2021-03-31T19:20:30Z</time>
      </trkpt>
      <trkpt lat="43.598650000" lon="5.049900000">
        <ele>68.000000</ele>
        <time>2021-03-31T19:21:20Z</time>
      </trkpt>
      <trkpt lat="43.598490000" lon="5.049960000">
        <ele>69.000000</ele>
        <time>2021-03-31T19:21:42Z</time>
      </trkpt>
      <trkpt lat="43.598200000" lon="5.050120000">
        <ele>69.000000</ele>
        <time>2021-03-31T19:22:24Z</time>
      </trkpt>
      <trkpt lat="43.598040000" lon="5.050240000">
        <ele>69.000000</ele>
        <time>2021-03-31T19:22:48Z</time>
      </trkpt>
      <trkpt lat="43.597880000" lon="5.050390000">
        <ele>69.000000</ele>
        <time>2021-03-31T19:23:14Z</time>
      </trkpt>
      <trkpt lat="43.597720000" lon="5.050610000">
        <ele>71.000000</ele>
        <time>2021-03-31T19:23:44Z</time>
      </trkpt>
      <trkpt lat="43.597650000" lon="5.050650000">
        <ele>72.000000</ele>
        <time>2021-03-31T19:23:54Z</time>
      </trkpt>
      <trkpt lat="43.597620000" lon="5.050750000">
        <ele>73.000000</ele>
        <time>2021-03-31T19:24:04Z</time>
      </trkpt>
      <trkpt lat="43.597700000" lon="5.050830000">
        <ele>75.000000</ele>
        <time>2021-03-31T19:24:18Z</time>
      </trkpt>
      <trkpt lat="43.597880000" lon="5.050760000">
        <ele>75.000000</ele>
        <time>2021-03-31T19:24:43Z</time>
      </trkpt>
      <trkpt lat="43.597910000" lon="5.051130000">
        <ele>78.000000</ele>
        <time>2021-03-31T19:25:19Z</time>
      </trkpt>
      <trkpt lat="43.597960000" lon="5.051170000">
        <ele>79.000000</ele>
        <time>2021-03-31T19:25:26Z</time>
      </trkpt>
      <trkpt lat="43.598620000" lon="5.050600000">
        <ele>77.000000</ele>
        <time>2021-03-31T19:27:10Z</time>
      </trkpt>
      <trkpt lat="43.598940000" lon="5.050530000">
        <ele>77.000000</ele>
        <time>2021-03-31T19:27:53Z</time>
      </trkpt>
      <trkpt lat="43.599360000" lon="5.050540000">
        <ele>78.000000</ele>
        <time>2021-03-31T19:28:49Z</time>
      </trkpt>
      <trkpt lat="43.599530000" lon="5.050580000">
        <ele>78.000000</ele>
        <time>2021-03-31T19:29:12Z</time>
      </trkpt>
      <trkpt lat="43.599780000" lon="5.050540000">
        <ele>79.000000</ele>
        <time>2021-03-31T19:29:46Z</time>
      </trkpt>
      <trkpt lat="43.599970000" lon="5.050560000">
        <ele>79.000000</ele>
        <time>2021-03-31T19:30:11Z</time>
      </trkpt>
      <trkpt lat="43.600140000" lon="5.050620000">
        <ele>80.000000</ele>
        <time>2021-03-31T19:30:35Z</time>
      </trkpt>
      <trkpt lat="43.600340000" lon="5.051050000">
        <ele>83.000000</ele>
        <time>2021-03-31T19:31:24Z</time>
      </trkpt>
      <trkpt lat="43.600520000" lon="5.051230000">
        <ele>83.000000</ele>
        <time>2021-03-31T19:31:54Z</time>
      </trkpt>
      <trkpt lat="43.600720000" lon="5.051290000">
        <ele>83.000000</ele>
        <time>2021-03-31T19:32:21Z</time>
      </trkpt>
      <trkpt lat="43.600820000" lon="5.051280000">
        <ele>83.000000</ele>
        <time>2021-03-31T19:32:35Z</time>
      </trkpt>
      <trkpt lat="43.600970000" lon="5.051190000">
        <ele>83.000000</ele>
        <time>2021-03-31T19:32:56Z</time>
      </trkpt>
      <trkpt lat="43.601110000" lon="5.051210000">
        <ele>84.000000</ele>
        <time>2021-03-31T19:33:15Z</time>
      </trkpt>
      <trkpt lat="43.601250000" lon="5.051380000">
        <ele>85.000000</ele>
        <time>2021-03-31T19:33:40Z</time>
      </trkpt>
      <trkpt lat="43.601320000" lon="5.051510000">
        <ele>86.000000</ele>
        <time>2021-03-31T19:33:56Z</time>
      </trkpt>
      <trkpt lat="43.601400000" lon="5.051750000">
        <ele>87.000000</ele>
        <time>2021-03-31T19:34:21Z</time>
      </trkpt>
      <trkpt lat="43.601310000" lon="5.051850000">
        <ele>87.000000</ele>
        <time>2021-03-31T19:34:37Z</time>
      </trkpt>
      <trkpt lat="43.601370000" lon="5.052040000">
        <ele>87.000000</ele>
        <time>2021-03-31T19:34:57Z</time>
      </trkpt>
      <trkpt lat="43.601570000" lon="5.052160000">
        <ele>87.000000</ele>
        <time>2021-03-31T19:35:26Z</time>
      </trkpt>
      <trkpt lat="43.601940000" lon="5.052580000">
        <ele>89.000000</ele>
        <time>2021-03-31T19:36:30Z</time>
      </trkpt>
      <trkpt lat="43.601970000" lon="5.052820000">
        <ele>89.000000</ele>
        <time>2021-03-31T19:36:53Z</time>
      </trkpt>
      <trkpt lat="43.602010000" lon="5.052960000">
        <ele>90.000000</ele>
        <time>2021-03-31T19:37:08Z</time>
      </trkpt>
      <trkpt lat="43.602060000" lon="5.053000000">
        <ele>90.000000</ele>
        <time>2021-03-31T19:37:16Z</time>
      </trkpt>
      <trkpt lat="43.602150000" lon="5.053310000">
        <ele>91.000000</ele>
        <time>2021-03-31T19:37:48Z</time>
      </trkpt>
      <trkpt lat="43.602200000" lon="5.053600000">
        <ele>91.000000</ele>
        <time>2021-03-31T19:38:17Z</time>
      </trkpt>
      <trkpt lat="43.602290000" lon="5.053850000">
        <ele>91.000000</ele>
        <time>2021-03-31T19:38:44Z</time>
      </trkpt>
      <trkpt lat="43.602440000" lon="5.054090000">
        <ele>90.000000</ele>
        <time>2021-03-31T19:39:14Z</time>
      </trkpt>
      <trkpt lat="43.602520000" lon="5.054100000">
        <ele>90.000000</ele>
        <time>2021-03-31T19:39:25Z</time>
      </trkpt>
      <trkpt lat="43.602590000" lon="5.054070000">
        <ele>90.000000</ele>
        <time>2021-03-31T19:39:35Z</time>
      </trkpt>
      <trkpt lat="43.602630000" lon="5.054130000">
        <ele>89.000000</ele>
        <time>2021-03-31T19:39:43Z</time>
      </trkpt>
      <trkpt lat="43.602620000" lon="5.054190000">
        <ele>89.000000</ele>
        <time>2021-03-31T19:39:49Z</time>
      </trkpt>
      <trkpt lat="43.602720000" lon="5.054520000">
        <ele>88.000000</ele>
        <time>2021-03-31T19:40:23Z</time>
      </trkpt>
      <trkpt lat="43.602730000" lon="5.055070000">
        <ele>88.000000</ele>
        <time>2021-03-31T19:41:16Z</time>
      </trkpt>
      <trkpt lat="43.602710000" lon="5.055230000">
        <ele>87.000000</ele>
        <time>2021-03-31T19:41:32Z</time>
      </trkpt>
      <trkpt lat="43.602630000" lon="5.055510000">
        <ele>87.000000</ele>
        <time>2021-03-31T19:42:01Z</time>
      </trkpt>
      <trkpt lat="43.602610000" lon="5.055930000">
        <ele>86.000000</ele>
        <time>2021-03-31T19:42:42Z</time>
      </trkpt>
      <trkpt lat="43.602490000" lon="5.056590000">
        <ele>85.000000</ele>
        <time>2021-03-31T19:43:47Z</time>
      </trkpt>
      <trkpt lat="43.602490000" lon="5.056900000">
        <ele>84.000000</ele>
        <time>2021-03-31T19:44:17Z</time>
      </trkpt>
      <trkpt lat="43.602530000" lon="5.057230000">
        <ele>83.000000</ele>
        <time>2021-03-31T19:44:50Z</time>
      </trkpt>
      <trkpt lat="43.602490000" lon="5.057990000">
        <ele>81.000000</ele>
        <time>2021-03-31T19:46:03Z</time>
      </trkpt>
      <trkpt lat="43.602390000" lon="5.058350000">
        <ele>81.000000</ele>
        <time>2021-03-31T19:46:41Z</time>
      </trkpt>
      <trkpt lat="43.602370000" lon="5.058760000">
        <ele>82.000000</ele>
        <time>2021-03-31T19:47:20Z</time>
      </trkpt>
      <trkpt lat="43.602440000" lon="5.059310000">
        <ele>83.000000</ele>
        <time>2021-03-31T19:48:14Z</time>
      </trkpt>
      <trkpt lat="43.602570000" lon="5.059610000">
        <ele>84.000000</ele>
        <time>2021-03-31T19:48:48Z</time>
      </trkpt>
      <trkpt lat="43.602610000" lon="5.059900000">
        <ele>84.000000</ele>
        <time>2021-03-31T19:49:17Z</time>
      </trkpt>
      <trkpt lat="43.602610000" lon="5.060170000">
        <ele>85.000000</ele>
        <time>2021-03-31T19:49:43Z</time>
      </trkpt>
      <trkpt lat="43.602560000" lon="5.060680000">
        <ele>85.000000</ele>
        <time>2021-03-31T19:50:32Z</time>
      </trkpt>
      <trkpt lat="43.602480000" lon="5.060740000">
        <ele>85.000000</ele>
        <time>2021-03-31T19:50:45Z</time>
      </trkpt>
      <trkpt lat="43.602660000" lon="5.061220000">
        <ele>83.000000</ele>
        <time>2021-03-31T19:51:37Z</time>
      </trkpt>
      <trkpt lat="43.602690000" lon="5.061370000">
        <ele>82.000000</ele>
        <time>2021-03-31T19:51:52Z</time>
      </trkpt>
      <trkpt lat="43.602670000" lon="5.061500000">
        <ele>82.000000</ele>
        <time>2021-03-31T19:52:05Z</time>
      </trkpt>
      <trkpt lat="43.602580000" lon="5.061600000">
        <ele>81.000000</ele>
        <time>2021-03-31T19:52:20Z</time>
      </trkpt>
      <trkpt lat="43.602510000" lon="5.061780000">
        <ele>81.000000</ele>
        <time>2021-03-31T19:52:40Z</time>
      </trkpt>
      <trkpt lat="43.602320000" lon="5.062040000">
        <ele>80.000000</ele>
        <time>2021-03-31T19:53:16Z</time>
      </trkpt>
      <trkpt lat="43.602220000" lon="5.062360000">
        <ele>80.000000</ele>
        <time>2021-03-31T19:53:49Z</time>
      </trkpt>
      <trkpt lat="43.602170000" lon="5.062420000">
        <ele>79.000000</ele>
        <time>2021-03-31T19:53:58Z</time>
      </trkpt>
      <trkpt lat="43.602160000" lon="5.062640000">
        <ele>79.000000</ele>
        <time>2021-03-31T19:54:19Z</time>
      </trkpt>
      <trkpt lat="43.602070000" lon="5.063040000">
        <ele>78.000000</ele>
        <time>2021-03-31T19:55:00Z</time>
      </trkpt>
      <trkpt lat="43.602070000" lon="5.063330000">
        <ele>77.000000</ele>
        <time>2021-03-31T19:55:28Z</time>
      </trkpt>
      <trkpt lat="43.601960000" lon="5.063560000">
        <ele>76.000000</ele>
        <time>2021-03-31T19:55:55Z</time>
      </trkpt>
      <trkpt lat="43.601890000" lon="5.063820000">
        <ele>74.000000</ele>
        <time>2021-03-31T19:56:21Z</time>
      </trkpt>
      <trkpt lat="43.601910000" lon="5.064040000">
        <ele>74.000000</ele>
        <time>2021-03-31T19:56:43Z</time>
      </trkpt>
      <trkpt lat="43.602010000" lon="5.064380000">
        <ele>73.000000</ele>
        <time>2021-03-31T19:57:18Z</time>
      </trkpt>
      <trkpt lat="43.601990000" lon="5.064470000">
        <ele>73.000000</ele>
        <time>2021-03-31T19:57:27Z</time>
      </trkpt>
      <trkpt lat="43.601860000" lon="5.064670000">
        <ele>71.000000</ele>
        <time>2021-03-31T19:57:53Z</time>
      </trkpt>
      <trkpt lat="43.601710000" lon="5.064790000">
        <ele>71.000000</ele>
        <time>2021-03-31T19:58:16Z</time>
      </trkpt>
      <trkpt lat="43.601710000" lon="5.064930000">
        <ele>70.000000</ele>
        <time>2021-03-31T19:58:30Z</time>
      </trkpt>
      <trkpt lat="43.601630000" lon="5.065200000">
        <ele>69.000000</ele>
        <time>2021-03-31T19:58:58Z</time>
      </trkpt>
      <trkpt lat="43.601680000" lon="5.065420000">
        <ele>69.000000</ele>
        <time>2021-03-31T19:59:20Z</time>
      </trkpt>
      <trkpt lat="43.601990000" lon="5.066190000">
        <ele>68.000000</ele>
        <time>2021-03-31T20:00:46Z</time>
      </trkpt>
      <trkpt lat="43.602290000" lon="5.067230000">
        <ele>66.000000</ele>
        <time>2021-03-31T20:02:34Z</time>
      </trkpt>
      <trkpt lat="43.602410000" lon="5.067960000">
        <ele>65.000000</ele>
        <time>2021-03-31T20:03:46Z</time>
      </trkpt>
      <trkpt lat="43.602500000" lon="5.068070000">
        <ele>65.000000</ele>
        <time>2021-03-31T20:04:02Z</time>
      </trkpt>
      <trkpt lat="43.602650000" lon="5.068150000">
        <ele>64.000000</ele>
        <time>2021-03-31T20:04:24Z</time>
      </trkpt>
      <trkpt lat="43.603010000" lon="5.068220000">
        <ele>62.000000</ele>
        <time>2021-03-31T20:05:12Z</time>
      </trkpt>
      <trkpt lat="43.603200000" lon="5.068370000">
        <ele>61.000000</ele>
        <time>2021-03-31T20:05:41Z</time>
      </trkpt>
      <trkpt lat="43.603230000" lon="5.067810000">
        <ele>61.000000</ele>
        <time>2021-03-31T20:06:36Z</time>
      </trkpt>
      <trkpt lat="43.603380000" lon="5.067320000">
        <ele>61.000000</ele>
        <time>2021-03-31T20:07:27Z</time>
      </trkpt>
      <trkpt lat="43.603500000" lon="5.067050000">
        <ele>60.000000</ele>
        <time>2021-03-31T20:07:58Z</time>
      </trkpt>
      <trkpt lat="43.603650000" lon="5.066910000">
        <ele>60.000000</ele>
        <time>2021-03-31T20:08:22Z</time>
      </trkpt>
      <trkpt lat="43.603730000" lon="5.066710000">
        <ele>60.000000</ele>
        <time>2021-03-31T20:08:44Z</time>
      </trkpt>
      <trkpt lat="43.603770000" lon="5.066470000">
        <ele>59.000000</ele>
        <time>2021-03-31T20:09:08Z</time>
      </trkpt>
      <trkpt lat="43.604020000" lon="5.065970000">
        <ele>58.000000</ele>
        <time>2021-03-31T20:10:06Z</time>
      </trkpt>
      <trkpt lat="43.604260000" lon="5.065710000">
        <ele>57.000000</ele>
        <time>2021-03-31T20:10:47Z</time>
      </trkpt>
      <trkpt lat="43.604460000" lon="5.065620000">
        <ele>56.000000</ele>
        <time>2021-03-31T20:11:15Z</time>
      </trkpt>
      <trkpt lat="43.604820000" lon="5.065350000">
        <ele>55.000000</ele>
        <time>2021-03-31T20:12:10Z</time>
      </trkpt>
      <trkpt lat="43.605220000" lon="5.065100000">
        <ele>54.000000</ele>
        <time>2021-03-31T20:13:08Z</time>
      </trkpt>
      <trkpt lat="43.605660000" lon="5.064880000">
        <ele>53.000000</ele>
        <time>2021-03-31T20:14:11Z</time>
      </trkpt>
      <trkpt lat="43.606230000" lon="5.064240000">
        <ele>54.000000</ele>
        <time>2021-03-31T20:15:49Z</time>
      </trkpt>
      <trkpt lat="43.606310000" lon="5.064100000">
        <ele>55.000000</ele>
        <time>2021-03-31T20:16:06Z</time>
      </trkpt>
      <trkpt lat="43.606400000" lon="5.064040000">
        <ele>55.000000</ele>
        <time>2021-03-31T20:16:19Z</time>
      </trkpt>
      <trkpt lat="43.606510000" lon="5.063920000">
        <ele>56.000000</ele>
        <time>2021-03-31T20:16:38Z</time>
      </trkpt>
      <trkpt lat="43.606680000" lon="5.063920000">
        <ele>56.000000</ele>
        <time>2021-03-31T20:17:01Z</time>
      </trkpt>
      <trkpt lat="43.606740000" lon="5.063850000">
        <ele>56.000000</ele>
        <time>2021-03-31T20:17:11Z</time>
      </trkpt>
      <trkpt lat="43.606880000" lon="5.063820000">
        <ele>56.000000</ele>
        <time>2021-03-31T20:17:30Z</time>
      </trkpt>
      <trkpt lat="43.606960000" lon="5.063770000">
        <ele>56.000000</ele>
        <time>2021-03-31T20:17:42Z</time>
      </trkpt>
      <trkpt lat="43.607100000" lon="5.063490000">
        <ele>56.000000</ele>
        <time>2021-03-31T20:18:15Z</time>
      </trkpt>
      <trkpt lat="43.607320000" lon="5.063320000">
        <ele>56.000000</ele>
        <time>2021-03-31T20:18:48Z</time>
      </trkpt>
      <trkpt lat="43.607210000" lon="5.063130000">
        <ele>56.000000</ele>
        <time>2021-03-31T20:19:12Z</time>
      </trkpt>
      <trkpt lat="43.607190000" lon="5.062900000">
        <ele>56.000000</ele>
        <time>2021-03-31T20:19:34Z</time>
      </trkpt>
      <trkpt lat="43.607360000" lon="5.062640000">
        <ele>55.000000</ele>
        <time>2021-03-31T20:20:08Z</time>
      </trkpt>
      <trkpt lat="43.607710000" lon="5.062270000">
        <ele>55.000000</ele>
        <time>2021-03-31T20:21:07Z</time>
      </trkpt>
      <trkpt lat="43.607840000" lon="5.062090000">
        <ele>55.000000</ele>
        <time>2021-03-31T20:21:32Z</time>
      </trkpt>
      <trkpt lat="43.608020000" lon="5.062040000">
        <ele>56.000000</ele>
        <time>2021-03-31T20:21:56Z</time>
      </trkpt>
      <trkpt lat="43.608560000" lon="5.061560000">
        <ele>56.000000</ele>
        <time>2021-03-31T20:23:22Z</time>
      </trkpt>
      <trkpt lat="43.608560000" lon="5.061500000">
        <ele>56.000000</ele>
        <time>2021-03-31T20:23:28Z</time>
      </trkpt>
    </trkseg>
  </trk>
</gpx>
